sensor_id;sensor_type;location;lat;lon;timestamp;pressure;altitude;pressure_sealevel;temperature;humidity
6218;BME280;3142;48.206;11.550;2024-03-17T00:01:56;96426.50;;;10.77;76.05
6218;BME280;3142;48.206;11.550;2024-03-17T00:04:24;96422.47;;;10.74;76.04
6218;BME280;3142;48.206;11.550;2024-03-17T00:06:49;96415.25;;;10.76;75.55
6218;BME280;3142;48.206;11.550;2024-03-17T00:09:16;96413.19;;;10.72;75.52
6218;BME280;3142;48.206;11.550;2024-03-17T00:11:43;96416.41;;;10.74;75.41
6218;BME280;3142;48.206;11.550;2024-03-17T00:14:10;96427.25;;;10.71;75.30
6218;BME280;3142;48.206;11.550;2024-03-17T00:16:36;96421.47;;;10.75;74.99
6218;BME280;3142;48.206;11.550;2024-03-17T00:19:04;96410.56;;;10.72;74.82
6218;BME280;3142;48.206;11.550;2024-03-17T00:21:32;96416.97;;;10.69;75.21
6218;BME280;3142;48.206;11.550;2024-03-17T00:23:58;96420.56;;;10.68;74.80
6218;BME280;3142;48.206;11.550;2024-03-17T00:26:24;96421.38;;;10.68;74.23
6218;BME280;3142;48.206;11.550;2024-03-17T00:28:50;96420.41;;;10.70;74.20
6218;BME280;3142;48.206;11.550;2024-03-17T00:31:16;96422.03;;;10.71;74.76
6218;BME280;3142;48.206;11.550;2024-03-17T00:33:43;96422.84;;;10.71;74.42
6218;BME280;3142;48.206;11.550;2024-03-17T00:36:09;96429.41;;;10.67;74.21
6218;BME280;3142;48.206;11.550;2024-03-17T00:38:37;96431.84;;;10.68;74.53
6218;BME280;3142;48.206;11.550;2024-03-17T00:41:03;96429.22;;;10.68;74.34
6218;BME280;3142;48.206;11.550;2024-03-17T00:43:29;96420.13;;;10.64;74.60
6218;BME280;3142;48.206;11.550;2024-03-17T00:45:55;96427.91;;;10.58;75.02
6218;BME280;3142;48.206;11.550;2024-03-17T00:48:21;96426.09;;;10.58;75.47
6218;BME280;3142;48.206;11.550;2024-03-17T00:50:54;96417.63;;;10.56;75.45
6218;BME280;3142;48.206;11.550;2024-03-17T00:53:21;96423.13;;;10.47;76.23
6218;BME280;3142;48.206;11.550;2024-03-17T00:55:52;96423.47;;;10.44;76.19
6218;BME280;3142;48.206;11.550;2024-03-17T00:58:19;96413.03;;;10.44;76.44
6218;BME280;3142;48.206;11.550;2024-03-17T01:00:45;96421.13;;;10.49;76.44
6218;BME280;3142;48.206;11.550;2024-03-17T01:03:13;96406.69;;;10.53;76.43
6218;BME280;3142;48.206;11.550;2024-03-17T01:05:38;96412.53;;;10.55;76.74
6218;BME280;3142;48.206;11.550;2024-03-17T01:08:07;96413.19;;;10.57;76.65
6218;BME280;3142;48.206;11.550;2024-03-17T01:10:33;96406.59;;;10.61;76.03
6218;BME280;3142;48.206;11.550;2024-03-17T01:13:01;96405.97;;;10.59;76.51
6218;BME280;3142;48.206;11.550;2024-03-17T01:15:26;96410.56;;;10.57;76.79
6218;BME280;3142;48.206;11.550;2024-03-17T01:17:53;96412.19;;;10.58;76.51
6218;BME280;3142;48.206;11.550;2024-03-17T01:20:18;96413.19;;;10.57;76.04
6218;BME280;3142;48.206;11.550;2024-03-17T01:22:44;96408.78;;;10.57;75.81
6218;BME280;3142;48.206;11.550;2024-03-17T01:25:10;96401.63;;;10.51;76.61
6218;BME280;3142;48.206;11.550;2024-03-17T01:27:37;96405.25;;;10.50;76.98
6218;BME280;3142;48.206;11.550;2024-03-17T01:30:05;96391.34;;;10.50;76.65
6218;BME280;3142;48.206;11.550;2024-03-17T01:32:32;96385.13;;;10.36;76.93
6218;BME280;3142;48.206;11.550;2024-03-17T01:34:57;96386.75;;;10.37;77.23
6218;BME280;3142;48.206;11.550;2024-03-17T01:37:24;96380.09;;;10.34;77.06
6218;BME280;3142;48.206;11.550;2024-03-17T01:39:49;96386.31;;;10.33;77.71
6218;BME280;3142;48.206;11.550;2024-03-17T01:42:16;96380.47;;;10.31;77.64
6218;BME280;3142;48.206;11.550;2024-03-17T01:44:41;96384.41;;;10.27;78.04
6218;BME280;3142;48.206;11.550;2024-03-17T01:47:09;96391.44;;;10.27;77.72
6218;BME280;3142;48.206;11.550;2024-03-17T01:49:35;96378.38;;;10.27;77.10
6218;BME280;3142;48.206;11.550;2024-03-17T01:52:02;96379.34;;;10.26;77.57
6218;BME280;3142;48.206;11.550;2024-03-17T01:54:29;96387.19;;;10.26;77.33
6218;BME280;3142;48.206;11.550;2024-03-17T01:56:56;96389.00;;;10.25;77.86
6218;BME280;3142;48.206;11.550;2024-03-17T01:59:21;96381.34;;;10.24;77.97
6218;BME280;3142;48.206;11.550;2024-03-17T02:01:48;96378.00;;;10.15;77.72
6218;BME280;3142;48.206;11.550;2024-03-17T02:04:15;96381.06;;;10.19;77.77
6218;BME280;3142;48.206;11.550;2024-03-17T02:06:42;96375.00;;;10.18;77.99
6218;BME280;3142;48.206;11.550;2024-03-17T02:09:08;96380.25;;;10.18;78.16
6218;BME280;3142;48.206;11.550;2024-03-17T02:11:35;96372.69;;;10.23;77.82
6218;BME280;3142;48.206;11.550;2024-03-17T02:14:00;96367.91;;;10.27;77.77
6218;BME280;3142;48.206;11.550;2024-03-17T02:16:27;96367.91;;;10.27;77.62
6218;BME280;3142;48.206;11.550;2024-03-17T02:18:56;96369.44;;;10.21;78.42
6218;BME280;3142;48.206;11.550;2024-03-17T02:21:25;96363.03;;;10.24;78.87
6218;BME280;3142;48.206;11.550;2024-03-17T02:23:54;96374.75;;;10.28;77.99
6218;BME280;3142;48.206;11.550;2024-03-17T02:26:21;96371.69;;;10.24;78.67
6218;BME280;3142;48.206;11.550;2024-03-17T02:28:47;96371.69;;;10.24;77.83
6218;BME280;3142;48.206;11.550;2024-03-17T02:31:16;96374.84;;;10.20;78.42
6218;BME280;3142;48.206;11.550;2024-03-17T02:33:42;96363.22;;;10.22;78.84
6218;BME280;3142;48.206;11.550;2024-03-17T02:36:09;96362.03;;;10.25;78.62
6218;BME280;3142;48.206;11.550;2024-03-17T02:38:37;96362.41;;;10.22;78.92
6218;BME280;3142;48.206;11.550;2024-03-17T02:41:23;96364.84;;;10.23;79.35
6218;BME280;3142;48.206;11.550;2024-03-17T02:43:49;96364.13;;;10.29;79.14
6218;BME280;3142;48.206;11.550;2024-03-17T02:46:17;96356.09;;;10.31;78.93
6218;BME280;3142;48.206;11.550;2024-03-17T02:48:47;96354.50;;;10.30;78.41
6218;BME280;3142;48.206;11.550;2024-03-17T02:51:14;96339.94;;;10.27;79.07
6218;BME280;3142;48.206;11.550;2024-03-17T02:53:41;96331.56;;;10.17;78.98
6218;BME280;3142;48.206;11.550;2024-03-17T02:56:08;96329.75;;;10.18;79.57
6218;BME280;3142;48.206;11.550;2024-03-17T02:58:36;96324.16;;;10.21;79.72
6218;BME280;3142;48.206;11.550;2024-03-17T03:01:03;96331.47;;;10.25;79.79
6218;BME280;3142;48.206;11.550;2024-03-17T03:03:30;96331.94;;;10.29;79.37
6218;BME280;3142;48.206;11.550;2024-03-17T03:05:57;96338.78;;;10.30;79.95
6218;BME280;3142;48.206;11.550;2024-03-17T03:08:23;96337.19;;;10.29;79.38
6218;BME280;3142;48.206;11.550;2024-03-17T03:10:51;96336.53;;;10.27;80.00
6218;BME280;3142;48.206;11.550;2024-03-17T03:13:17;96332.09;;;10.27;79.72
6218;BME280;3142;48.206;11.550;2024-03-17T03:15:46;96327.44;;;10.23;80.28
6218;BME280;3142;48.206;11.550;2024-03-17T03:18:13;96318.31;;;10.19;80.19
6218;BME280;3142;48.206;11.550;2024-03-17T03:20:39;96326.16;;;10.19;80.56
6218;BME280;3142;48.206;11.550;2024-03-17T03:23:06;96324.16;;;10.21;80.40
6218;BME280;3142;48.206;11.550;2024-03-17T03:25:32;96335.28;;;10.23;80.24
6218;BME280;3142;48.206;11.550;2024-03-17T03:27:59;96323.63;;;10.25;79.75
6218;BME280;3142;48.206;11.550;2024-03-17T03:30:27;96325.25;;;10.26;79.96
6218;BME280;3142;48.206;11.550;2024-03-17T03:32:55;96322.00;;;10.24;80.30
6218;BME280;3142;48.206;11.550;2024-03-17T03:35:22;96324.81;;;10.23;80.19
6218;BME280;3142;48.206;11.550;2024-03-17T03:37:49;96324.63;;;10.24;80.19
6218;BME280;3142;48.206;11.550;2024-03-17T03:40:17;96324.53;;;10.18;79.83
6218;BME280;3142;48.206;11.550;2024-03-17T03:42:43;96327.50;;;10.15;79.97
6218;BME280;3142;48.206;11.550;2024-03-17T03:45:10;96323.44;;;10.12;80.05
6218;BME280;3142;48.206;11.550;2024-03-17T03:47:37;96326.22;;;10.10;80.19
6218;BME280;3142;48.206;11.550;2024-03-17T03:50:07;96322.63;;;10.12;80.67
6218;BME280;3142;48.206;11.550;2024-03-17T03:52:34;96320.00;;;10.12;80.44
6218;BME280;3142;48.206;11.550;2024-03-17T03:55:00;96324.41;;;10.11;81.03
6218;BME280;3142;48.206;11.550;2024-03-17T03:57:29;96322.81;;;10.10;80.06
6218;BME280;3142;48.206;11.550;2024-03-17T03:59:57;96317.13;;;10.06;80.62
6218;BME280;3142;48.206;11.550;2024-03-17T04:02:23;96320.38;;;10.08;80.93
6218;BME280;3142;48.206;11.550;2024-03-17T04:04:52;96312.28;;;10.03;80.98
6218;BME280;3142;48.206;11.550;2024-03-17T04:07:20;96312.28;;;10.03;81.16
6218;BME280;3142;48.206;11.550;2024-03-17T04:09:47;96318.31;;;10.04;81.15
6218;BME280;3142;48.206;11.550;2024-03-17T04:12:13;96314.06;;;10.03;80.45
6218;BME280;3142;48.206;11.550;2024-03-17T04:14:40;96310.19;;;9.99;80.58
6218;BME280;3142;48.206;11.550;2024-03-17T04:17:06;96311.81;;;10.00;80.46
6218;BME280;3142;48.206;11.550;2024-03-17T04:19:32;96321.09;;;10.02;80.97
6218;BME280;3142;48.206;11.550;2024-03-17T04:21:59;96315.06;;;10.02;80.98
6218;BME280;3142;48.206;11.550;2024-03-17T04:24:27;96324.06;;;9.99;80.85
6218;BME280;3142;48.206;11.550;2024-03-17T04:26:54;96317.41;;;9.97;81.11
6218;BME280;3142;48.206;11.550;2024-03-17T04:29:20;96310.53;;;9.96;80.39
6218;BME280;3142;48.206;11.550;2024-03-17T04:31:46;96313.34;;;9.94;81.49
6218;BME280;3142;48.206;11.550;2024-03-17T04:34:14;96322.91;;;10.02;80.14
6218;BME280;3142;48.206;11.550;2024-03-17T04:36:41;96319.31;;;10.03;80.52
6218;BME280;3142;48.206;11.550;2024-03-17T04:39:08;96320.94;;;10.04;79.75
6218;BME280;3142;48.206;11.550;2024-03-17T04:41:35;96327.47;;;10.00;80.06
6218;BME280;3142;48.206;11.550;2024-03-17T04:44:03;96321.19;;;9.94;80.15
6218;BME280;3142;48.206;11.550;2024-03-17T04:46:31;96324.53;;;9.88;79.39
6218;BME280;3142;48.206;11.550;2024-03-17T04:48:58;96324.34;;;9.90;79.93
6218;BME280;3142;48.206;11.550;2024-03-17T04:51:24;96331.19;;;9.91;79.84
6218;BME280;3142;48.206;11.550;2024-03-17T04:53:51;96325.06;;;9.98;79.70
6218;BME280;3142;48.206;11.550;2024-03-17T04:56:17;96324.88;;;10.00;79.73
6218;BME280;3142;48.206;11.550;2024-03-17T04:58:45;96326.53;;;10.01;78.98
6218;BME280;3142;48.206;11.550;2024-03-17T05:01:11;96319.50;;;10.01;79.21
6218;BME280;3142;48.206;11.550;2024-03-17T05:03:38;96323.81;;;9.94;79.18
6218;BME280;3142;48.206;11.550;2024-03-17T05:06:05;96326.84;;;9.83;79.38
6218;BME280;3142;48.206;11.550;2024-03-17T05:08:33;96318.94;;;9.76;79.19
6218;BME280;3142;48.206;11.550;2024-03-17T05:11:02;96325.41;;;9.80;79.18
6218;BME280;3142;48.206;11.550;2024-03-17T05:13:30;96327.28;;;9.87;79.27
6218;BME280;3142;48.206;11.550;2024-03-17T05:15:59;96330.56;;;9.89;78.57
6218;BME280;3142;48.206;11.550;2024-03-17T05:18:26;96322.06;;;9.87;78.30
6218;BME280;3142;48.206;11.550;2024-03-17T05:20:59;96330.47;;;9.82;78.63
6218;BME280;3142;48.206;11.550;2024-03-17T05:23:27;96327.28;;;9.87;78.13
6218;BME280;3142;48.206;11.550;2024-03-17T05:25:54;96325.97;;;9.91;77.46
6218;BME280;3142;48.206;11.550;2024-03-17T05:28:21;96330.75;;;9.87;78.19
6218;BME280;3142;48.206;11.550;2024-03-17T05:30:48;96332.06;;;9.83;77.50
6218;BME280;3142;48.206;11.550;2024-03-17T05:33:17;96333.00;;;9.75;77.97
6218;BME280;3142;48.206;11.550;2024-03-17T05:35:48;96329.75;;;9.73;77.77
6218;BME280;3142;48.206;11.550;2024-03-17T05:38:15;96334.50;;;9.70;78.52
6218;BME280;3142;48.206;11.550;2024-03-17T05:40:42;96337.41;;;9.75;77.63
6218;BME280;3142;48.206;11.550;2024-03-17T05:43:09;96335.88;;;9.80;78.08
6218;BME280;3142;48.206;11.550;2024-03-17T05:45:35;96339.56;;;9.86;78.43
6218;BME280;3142;48.206;11.550;2024-03-17T05:48:02;96344.09;;;9.92;78.35
6218;BME280;3142;48.206;11.550;2024-03-17T05:50:31;96345.69;;;9.93;78.30
6218;BME280;3142;48.206;11.550;2024-03-17T05:52:58;96349.94;;;9.94;78.18
6218;BME280;3142;48.206;11.550;2024-03-17T05:55:24;96343.53;;;9.97;78.24
6218;BME280;3142;48.206;11.550;2024-03-17T05:57:51;96340.22;;;9.88;77.92
6218;BME280;3142;48.206;11.550;2024-03-17T06:00:17;96342.03;;;9.88;77.98
6218;BME280;3142;48.206;11.550;2024-03-17T06:02:44;96346.25;;;9.89;78.12
6218;BME280;3142;48.206;11.550;2024-03-17T06:05:11;96340.28;;;9.95;78.05
6218;BME280;3142;48.206;11.550;2024-03-17T06:07:40;96345.69;;;9.93;78.11
6218;BME280;3142;48.206;11.550;2024-03-17T06:10:08;96345.78;;;9.85;77.77
6218;BME280;3142;48.206;11.550;2024-03-17T06:12:35;96350.56;;;9.82;78.25
6218;BME280;3142;48.206;11.550;2024-03-17T06:15:02;96341.47;;;9.77;78.93
6218;BME280;3142;48.206;11.550;2024-03-17T06:17:29;96338.22;;;9.75;78.39
6218;BME280;3142;48.206;11.550;2024-03-17T06:19:55;96341.97;;;9.73;79.33
6218;BME280;3142;48.206;11.550;2024-03-17T06:22:22;96340.53;;;9.70;79.15
6218;BME280;3142;48.206;11.550;2024-03-17T06:24:51;96344.22;;;9.61;80.00
6218;BME280;3142;48.206;11.550;2024-03-17T06:27:17;96339.63;;;9.63;80.07
6218;BME280;3142;48.206;11.550;2024-03-17T06:29:44;96341.44;;;9.63;80.04
6218;BME280;3142;48.206;11.550;2024-03-17T06:32:11;96341.25;;;9.64;79.35
6218;BME280;3142;48.206;11.550;2024-03-17T06:34:37;96335.03;;;9.65;79.57
6218;BME280;3142;48.206;11.550;2024-03-17T06:37:04;96340.72;;;9.69;79.36
6218;BME280;3142;48.206;11.550;2024-03-17T06:39:30;96343.69;;;9.66;80.43
6218;BME280;3142;48.206;11.550;2024-03-17T06:41:58;96350.53;;;9.67;80.74
6218;BME280;3142;48.206;11.550;2024-03-17T06:44:25;96354.16;;;9.80;80.41
6218;BME280;3142;48.206;11.550;2024-03-17T06:46:55;96344.97;;;9.85;79.30
6218;BME280;3142;48.206;11.550;2024-03-17T06:49:22;96343.63;;;9.89;80.09
6218;BME280;3142;48.206;11.550;2024-03-17T06:51:49;96346.59;;;9.86;78.70
6218;BME280;3142;48.206;11.550;2024-03-17T06:54:15;96349.28;;;9.77;77.58
6218;BME280;3142;48.206;11.550;2024-03-17T06:56:41;96351.28;;;9.75;76.47
6218;BME280;3142;48.206;11.550;2024-03-17T06:59:09;96348.56;;;9.69;74.84
6218;BME280;3142;48.206;11.550;2024-03-17T07:01:36;96335.50;;;9.69;73.54
6218;BME280;3142;48.206;11.550;2024-03-17T07:04:02;96343.50;;;9.67;73.40
6218;BME280;3142;48.206;11.550;2024-03-17T07:06:29;96339.09;;;9.68;73.02
6218;BME280;3142;48.206;11.550;2024-03-17T07:08:55;96345.56;;;9.72;73.01
6218;BME280;3142;48.206;11.550;2024-03-17T07:11:22;96332.00;;;9.76;72.73
6218;BME280;3142;48.206;11.550;2024-03-17T07:13:50;96339.84;;;9.76;73.03
6218;BME280;3142;48.206;11.550;2024-03-17T07:16:18;96342.72;;;9.96;72.97
6218;BME280;3142;48.206;11.550;2024-03-17T07:18:46;96339.31;;;10.10;72.44
6218;BME280;3142;48.206;11.550;2024-03-17T07:21:14;96342.13;;;10.24;72.61
6218;BME280;3142;48.206;11.550;2024-03-17T07:23:40;96336.44;;;10.35;72.75
6218;BME280;3142;48.206;11.550;2024-03-17T07:26:06;96330.81;;;10.53;72.76
6218;BME280;3142;48.206;11.550;2024-03-17T07:28:36;96337.66;;;10.54;72.78
6218;BME280;3142;48.206;11.550;2024-03-17T07:31:06;96335.44;;;10.87;72.05
6218;BME280;3142;48.206;11.550;2024-03-17T07:33:35;96339.84;;;10.86;71.41
6218;BME280;3142;48.206;11.550;2024-03-17T07:36:03;96338.38;;;10.98;71.97
6218;BME280;3142;48.206;11.550;2024-03-17T07:38:30;96335.31;;;11.38;70.28
6218;BME280;3142;48.206;11.550;2024-03-17T07:40:59;96345.19;;;11.64;68.99
6218;BME280;3142;48.206;11.550;2024-03-17T07:43:26;96336.13;;;12.22;68.14
6218;BME280;3142;48.206;11.550;2024-03-17T07:46:00;96335.13;;;12.30;67.14
6218;BME280;3142;48.206;11.550;2024-03-17T07:48:28;96335.28;;;11.87;65.47
6218;BME280;3142;48.206;11.550;2024-03-17T07:50:56;96328.41;;;11.58;67.06
6218;BME280;3142;48.206;11.550;2024-03-17T07:53:23;96327.53;;;11.51;67.23
6218;BME280;3142;48.206;11.550;2024-03-17T07:55:57;96324.09;;;11.50;67.71
6218;BME280;3142;48.206;11.550;2024-03-17T07:58:25;96323.69;;;11.47;67.97
6218;BME280;3142;48.206;11.550;2024-03-17T08:00:52;96319.50;;;11.52;67.97
6218;BME280;3142;48.206;11.550;2024-03-17T08:03:19;96319.94;;;11.56;68.49
6218;BME280;3142;48.206;11.550;2024-03-17T08:05:48;96312.16;;;11.69;67.34
6218;BME280;3142;48.206;11.550;2024-03-17T08:08:16;96309.78;;;11.74;67.33
6218;BME280;3142;48.206;11.550;2024-03-17T08:10:43;96307.25;;;11.81;66.48
6218;BME280;3142;48.206;11.550;2024-03-17T08:13:10;96306.66;;;11.85;66.54
6218;BME280;3142;48.206;11.550;2024-03-17T08:15:36;96306.84;;;11.84;66.54
6218;BME280;3142;48.206;11.550;2024-03-17T08:18:03;96310.09;;;11.86;66.06
6218;BME280;3142;48.206;11.550;2024-03-17T08:20:36;96302.06;;;11.94;66.16
6218;BME280;3142;48.206;11.550;2024-03-17T08:23:03;96291.22;;;12.04;65.86
6218;BME280;3142;48.206;11.550;2024-03-17T08:25:31;96295.16;;;12.28;65.42
6218;BME280;3142;48.206;11.550;2024-03-17T08:27:57;96297.03;;;12.34;65.10
6218;BME280;3142;48.206;11.550;2024-03-17T08:30:24;96288.97;;;12.35;64.50
6218;BME280;3142;48.206;11.550;2024-03-17T08:32:50;96296.22;;;12.40;64.31
6218;BME280;3142;48.206;11.550;2024-03-17T08:35:16;96290.19;;;12.39;64.41
6218;BME280;3142;48.206;11.550;2024-03-17T08:37:43;96295.47;;;12.53;64.60
6218;BME280;3142;48.206;11.550;2024-03-17T08:40:10;96292.91;;;12.72;64.89
6218;BME280;3142;48.206;11.550;2024-03-17T08:42:38;96291.31;;;12.78;65.00
6218;BME280;3142;48.206;11.550;2024-03-17T08:45:06;96284.66;;;12.82;64.93
6218;BME280;3142;48.206;11.550;2024-03-17T08:47:33;96293.59;;;13.08;62.63
6218;BME280;3142;48.206;11.550;2024-03-17T08:49:59;96287.16;;;13.37;62.21
6218;BME280;3142;48.206;11.550;2024-03-17T08:52:29;96285.16;;;13.45;62.51
6218;BME280;3142;48.206;11.550;2024-03-17T08:54:57;96268.31;;;13.79;61.56
6218;BME280;3142;48.206;11.550;2024-03-17T08:57:23;96280.81;;;13.84;61.81
6218;BME280;3142;48.206;11.550;2024-03-17T08:59:51;96273.72;;;13.98;60.99
6218;BME280;3142;48.206;11.550;2024-03-17T09:02:18;96273.75;;;14.56;60.09
6218;BME280;3142;48.206;11.550;2024-03-17T09:04:45;96266.94;;;15.61;57.92
6218;BME280;3142;48.206;11.550;2024-03-17T09:07:11;96261.66;;;16.04;56.82
6218;BME280;3142;48.206;11.550;2024-03-17T09:09:39;96256.34;;;15.86;57.22
6218;BME280;3142;48.206;11.550;2024-03-17T09:12:06;96255.06;;;16.13;56.54
6218;BME280;3142;48.206;11.550;2024-03-17T09:14:32;96246.53;;;16.48;55.12
6218;BME280;3142;48.206;11.550;2024-03-17T09:17:00;96247.09;;;17.10;53.23
6218;BME280;3142;48.206;11.550;2024-03-17T09:19:27;96244.88;;;17.72;51.79
6218;BME280;3142;48.206;11.550;2024-03-17T09:21:55;96243.00;;;17.61;51.49
6218;BME280;3142;48.206;11.550;2024-03-17T09:24:22;96238.94;;;18.17;51.00
6218;BME280;3142;48.206;11.550;2024-03-17T09:26:49;96232.16;;;19.06;49.39
6218;BME280;3142;48.206;11.550;2024-03-17T09:29:16;96228.97;;;19.55;48.79
6218;BME280;3142;48.206;11.550;2024-03-17T09:31:43;96239.00;;;19.36;48.29
6218;BME280;3142;48.206;11.550;2024-03-17T09:34:12;96237.31;;;19.13;47.26
6218;BME280;3142;48.206;11.550;2024-03-17T09:36:39;96237.06;;;19.31;46.66
6218;BME280;3142;48.206;11.550;2024-03-17T09:39:06;96239.56;;;19.88;46.54
6218;BME280;3142;48.206;11.550;2024-03-17T09:41:33;96240.41;;;19.94;46.33
6218;BME280;3142;48.206;11.550;2024-03-17T09:44:00;96242.75;;;20.29;44.87
6218;BME280;3142;48.206;11.550;2024-03-17T09:46:27;96247.59;;;20.37;44.28
6218;BME280;3142;48.206;11.550;2024-03-17T09:48:54;96230.97;;;20.68;43.99
6218;BME280;3142;48.206;11.550;2024-03-17T09:51:25;96221.78;;;20.32;45.18
6218;BME280;3142;48.206;11.550;2024-03-17T09:53:52;96231.03;;;20.74;44.83
6218;BME280;3142;48.206;11.550;2024-03-17T09:56:19;96219.88;;;21.04;43.36
6218;BME280;3142;48.206;11.550;2024-03-17T09:58:46;96219.72;;;21.15;43.43
6218;BME280;3142;48.206;11.550;2024-03-17T10:01:13;96227.59;;;20.29;43.00
6218;BME280;3142;48.206;11.550;2024-03-17T10:03:42;96214.97;;;20.20;42.76
6218;BME280;3142;48.206;11.550;2024-03-17T10:06:08;96216.19;;;20.56;41.95
6218;BME280;3142;48.206;11.550;2024-03-17T10:08:42;96217.91;;;20.67;41.87
6218;BME280;3142;48.206;11.550;2024-03-17T10:11:09;96215.63;;;21.03;41.58
6218;BME280;3142;48.206;11.550;2024-03-17T10:13:36;96219.22;;;20.91;41.84
6218;BME280;3142;48.206;11.550;2024-03-17T10:16:03;96225.22;;;21.09;41.79
6218;BME280;3142;48.206;11.550;2024-03-17T10:18:29;96220.38;;;20.47;42.35
6218;BME280;3142;48.206;11.550;2024-03-17T10:20:56;96227.69;;;19.74;43.29
6218;BME280;3142;48.206;11.550;2024-03-17T10:23:24;96221.53;;;19.73;44.15
6218;BME280;3142;48.206;11.550;2024-03-17T10:25:53;96215.66;;;19.88;44.20
6218;BME280;3142;48.206;11.550;2024-03-17T10:28:20;96218.25;;;20.27;43.27
6218;BME280;3142;48.206;11.550;2024-03-17T10:30:57;96213.38;;;20.62;43.04
6218;BME280;3142;48.206;11.550;2024-03-17T10:33:25;96209.53;;;20.80;42.75
6218;BME280;3142;48.206;11.550;2024-03-17T10:35:58;96204.88;;;20.92;42.13
6218;BME280;3142;48.206;11.550;2024-03-17T10:38:25;96206.22;;;20.95;41.61
6218;BME280;3142;48.206;11.550;2024-03-17T10:40:54;96209.44;;;20.43;42.06
6218;BME280;3142;48.206;11.550;2024-03-17T10:43:20;96206.75;;;19.44;43.00
6218;BME280;3142;48.206;11.550;2024-03-17T10:45:51;96216.31;;;18.78;43.88
6218;BME280;3142;48.206;11.550;2024-03-17T10:48:19;96220.66;;;18.03;44.53
6218;BME280;3142;48.206;11.550;2024-03-17T10:50:48;96214.69;;;17.61;45.89
6218;BME280;3142;48.206;11.550;2024-03-17T10:53:18;96214.03;;;17.42;45.38
6218;BME280;3142;48.206;11.550;2024-03-17T10:56:00;96209.41;;;17.14;46.55
6218;BME280;3142;48.206;11.550;2024-03-17T10:58:33;96213.09;;;17.13;46.30
6218;BME280;3142;48.206;11.550;2024-03-17T11:01:01;96206.53;;;17.16;46.00
6218;BME280;3142;48.206;11.550;2024-03-17T11:03:29;96197.91;;;17.56;44.94
6218;BME280;3142;48.206;11.550;2024-03-17T11:05:57;96189.94;;;18.31;44.95
6218;BME280;3142;48.206;11.550;2024-03-17T11:08:25;96183.50;;;19.17;44.56
6218;BME280;3142;48.206;11.550;2024-03-17T11:10:53;96178.19;;;19.51;43.89
6218;BME280;3142;48.206;11.550;2024-03-17T11:13:24;96179.38;;;19.99;42.14
6218;BME280;3142;48.206;11.550;2024-03-17T11:15:52;96171.75;;;20.51;40.47
6218;BME280;3142;48.206;11.550;2024-03-17T11:18:37;96173.25;;;19.76;40.94
6218;BME280;3142;48.206;11.550;2024-03-17T11:21:06;96169.06;;;19.08;42.12
6218;BME280;3142;48.206;11.550;2024-03-17T11:23:40;96165.00;;;19.56;41.40
6218;BME280;3142;48.206;11.550;2024-03-17T11:26:07;96167.19;;;20.47;39.94
6218;BME280;3142;48.206;11.550;2024-03-17T11:28:51;96167.88;;;20.59;40.30
6218;BME280;3142;48.206;11.550;2024-03-17T11:31:35;96172.22;;;21.34;38.51
6218;BME280;3142;48.206;11.550;2024-03-17T11:34:03;96165.84;;;20.44;39.39
6218;BME280;3142;48.206;11.550;2024-03-17T11:36:33;96170.72;;;19.65;40.13
6218;BME280;3142;48.206;11.550;2024-03-17T11:39:03;96160.38;;;18.79;41.02
6218;BME280;3142;48.206;11.550;2024-03-17T11:41:36;96169.75;;;18.42;42.26
6218;BME280;3142;48.206;11.550;2024-03-17T11:44:26;96167.78;;;18.09;42.91
6218;BME280;3142;48.206;11.550;2024-03-17T11:46:53;96172.25;;;17.56;43.17
6218;BME280;3142;48.206;11.550;2024-03-17T11:49:21;96174.66;;;17.34;43.45
6218;BME280;3142;48.206;11.550;2024-03-17T11:51:48;96173.75;;;17.17;44.54
6218;BME280;3142;48.206;11.550;2024-03-17T11:54:15;96172.81;;;17.11;44.76
6218;BME280;3142;48.206;11.550;2024-03-17T11:56:47;96177.09;;;17.01;44.14
6218;BME280;3142;48.206;11.550;2024-03-17T11:59:13;96175.41;;;16.76;44.71
6218;BME280;3142;48.206;11.550;2024-03-17T12:01:44;96174.69;;;16.69;44.74
6218;BME280;3142;48.206;11.550;2024-03-17T12:04:13;96173.81;;;16.75;44.74
6218;BME280;3142;48.206;11.550;2024-03-17T12:06:39;96178.31;;;16.98;45.00
6218;BME280;3142;48.206;11.550;2024-03-17T12:09:10;96170.28;;;17.75;43.55
6218;BME280;3142;48.206;11.550;2024-03-17T12:11:36;96173.41;;;17.72;43.34
6218;BME280;3142;48.206;11.550;2024-03-17T12:14:13;96161.41;;;18.21;42.45
6218;BME280;3142;48.206;11.550;2024-03-17T12:16:47;96157.84;;;18.27;43.51
6218;BME280;3142;48.206;11.550;2024-03-17T12:19:15;96154.53;;;18.09;43.43
6218;BME280;3142;48.206;11.550;2024-03-17T12:21:43;96150.88;;;18.10;43.18
6218;BME280;3142;48.206;11.550;2024-03-17T12:24:14;96140.22;;;18.21;43.21
6218;BME280;3142;48.206;11.550;2024-03-17T12:26:40;96132.22;;;18.33;43.00
6218;BME280;3142;48.206;11.550;2024-03-17T12:29:22;96124.63;;;18.37;42.76
6218;BME280;3142;48.206;11.550;2024-03-17T12:31:49;96125.28;;;18.44;43.06
6218;BME280;3142;48.206;11.550;2024-03-17T12:34:16;96120.06;;;18.20;43.59
6218;BME280;3142;48.206;11.550;2024-03-17T12:36:42;96126.84;;;17.99;43.95
6218;BME280;3142;48.206;11.550;2024-03-17T12:39:10;96125.69;;;17.95;44.02
6218;BME280;3142;48.206;11.550;2024-03-17T12:41:36;96121.03;;;17.86;43.99
6218;BME280;3142;48.206;11.550;2024-03-17T12:44:03;96120.56;;;17.77;43.54
6218;BME280;3142;48.206;11.550;2024-03-17T12:46:29;96117.03;;;17.71;43.94
6218;BME280;3142;48.206;11.550;2024-03-17T12:48:59;96111.97;;;17.58;43.86
6218;BME280;3142;48.206;11.550;2024-03-17T12:51:25;96113.59;;;17.47;43.64
6218;BME280;3142;48.206;11.550;2024-03-17T12:54:12;96118.19;;;17.40;44.02
6218;BME280;3142;48.206;11.550;2024-03-17T12:56:37;96112.31;;;17.38;44.05
6218;BME280;3142;48.206;11.550;2024-03-17T12:59:22;96112.09;;;17.40;44.84
6218;BME280;3142;48.206;11.550;2024-03-17T13:02:10;96109.19;;;17.53;44.31
6218;BME280;3142;48.206;11.550;2024-03-17T13:04:39;96110.22;;;17.52;44.67
6218;BME280;3142;48.206;11.550;2024-03-17T13:07:11;96106.19;;;17.61;44.62
6218;BME280;3142;48.206;11.550;2024-03-17T13:09:38;96111.16;;;17.58;44.52
6218;BME280;3142;48.206;11.550;2024-03-17T13:12:14;96117.28;;;17.46;44.64
6218;BME280;3142;48.206;11.550;2024-03-17T13:14:41;96109.56;;;17.45;44.85
6218;BME280;3142;48.206;11.550;2024-03-17T13:17:14;96115.53;;;17.40;45.44